D/T METAR WX W/DIR W/SPE G/SPE TEMP DEWP
19/03/19 20:50 EGTE 192050Z 31003KT 9999 BKN027 10/07 Q1030 NW (310°) 3.5mph 10°C 7°C
19/03/19 20:20 EGTE 192020Z 32003KT 9999 BKN027 10/06 Q1030 NW (320°) 3.5mph 10°C 6°C
19/03/19 19:50 EGTE 191950Z VRB01KT 9999 SCT030 11/08 Q1029 N (0°) 1.2mph 11°C 8°C
19/03/19 19:20 EGTE 191920Z 30006KT 270V340 9999 SCT030 11/08 Q1029 WNW (300°) 6.9mph 11°C 8°C
19/03/19 18:50 EGTE 191850Z 31004KT 9999 SCT035 11/08 Q1029 NW (310°) 4.6mph 11°C 8°C
19/03/19 18:20 EGTE 191820Z 27001KT 9999 SCT037 12/08 Q1029 W (270°) 1.2mph 12°C 8°C
19/03/19 17:50 EGTE 191750Z 23002KT 9999 FEW040 13/08 Q1029 SW (230°) 2.3mph 13°C 8°C
19/03/19 17:20 EGTE 191720Z VRB03KT 9999 FEW045 13/09 Q1028 N (0°) 3.5mph 13°C 9°C
19/03/19 16:50 EGTE 191650Z VRB03KT 9999 FEW040 14/08 Q1028 N (0°) 3.5mph 14°C 8°C
19/03/19 16:20 EGTE 191620Z 18004KT 150V220 9999 FEW040 13/08 Q1027 S (180°) 4.6mph 13°C 8°C
19/03/19 15:50 EGTE 191550Z 14004KT 110V170 9999 SCT040 13/09 Q1028 SE (140°) 4.6mph 13°C 9°C
19/03/19 15:20 EGTE 191520Z 18005KT 9999 SCT035 12/09 Q1028 S (180°) 5.8mph 12°C 9°C
19/03/19 14:50 EGTE 191450Z 18007KT 9999 SCT030 11/08 Q1028 S (180°) 8.1mph 11°C 8°C
19/03/19 14:20 EGTE 191420Z 24006KT 180V310 9999 SCT030 12/08 Q1028 WSW (240°) 6.9mph 12°C 8°C
19/03/19 13:50 EGTE 191350Z 31007KT 250V340 9999 SCT030 13/07 Q1028 NW (310°) 8.1mph 13°C 7°C
19/03/19 13:20 EGTE 191320Z 28007KT 250V330 9999 SCT030 13/06 Q1028 W (280°) 8.1mph 13°C 6°C
19/03/19 12:50 EGTE 191250Z 29007KT 250V320 9999 SCT035 12/07 Q1028 WNW (290°) 8.1mph 12°C 7°C
19/03/19 11:50 EGTE 191150Z 26006KT 210V290 9999 BKN025 12/08 Q1028 W (260°) 6.9mph 12°C 8°C
19/03/19 11:20 EGTE 191120Z 28005KT 230V340 9999 FEW012 BKN024 11/08 Q1028 W (280°) 5.8mph 11°C 8°C
19/03/19 10:50 EGTE 191050Z 26006KT 230V310 9999 FEW010 BKN022 11/07 Q1028 W (260°) 6.9mph 11°C 7°C
19/03/19 09:50 EGTE 190950Z 29008KT 9999 FEW009 BKN020 10/09 Q1028 WNW (290°) 9.2mph 10°C 9°C
19/03/19 09:20 EGTE 190920Z 26005KT 9999 FEW009 BKN018 10/08 Q1028 W (260°) 5.8mph 10°C 8°C
19/03/19 08:50 EGTE 190850Z 25005KT 9999 FEW009 BKN018 09/09 Q1027 WSW (250°) 5.8mph 9°C 9°C
19/03/19 08:20 EGTE 190820Z VRB02KT 9999 FEW009 BKN018 09/08 Q1027 N (0°) 2.3mph 9°C 8°C
19/03/19 07:50 EGTE 190750Z 23002KT 9999 FEW009 BKN023 08/08 Q1027 SW (230°) 2.3mph 8°C 8°C
19/03/19 07:20 EGTE 190720Z 20004KT 9999 BKN023 08/07 Q1027 SSW (200°) 4.6mph 8°C 7°C
19/03/19 06:50 EGTE 190650Z 19004KT 9999 BKN024 07/07 Q1026 S (190°) 4.6mph 7°C 7°C
19/03/19 06:20 EGTE 190620Z 20004KT 9999 BKN025 08/08 Q1026 SSW (200°) 4.6mph 8°C 8°C
19/03/19 05:50 EGTE 190550Z 21003KT 9999 BKN025 08/08 Q1026 SSW (210°) 3.5mph 8°C 8°C
19/03/19 01:20 EGTE 190120Z 22002KT 9999 SCT015 SCT035 08/07 Q1026 SW (220°) 2.3mph 8°C 7°C
19/03/19 00:20 EGTE 190020Z 28002KT 9999 SCT015 SCT035 09/08 Q1025 W (280°) 2.3mph 9°C 8°C
18/03/19 23:50 EGTE 182350Z 00000KT 9999 BKN015 09/08 Q1025 N (0°) 9°C 8°C
18/03/19 22:50 EGTE 182250Z VRB01KT 9999 FEW015 BKN035 08/07 Q1025 N (0°) 1.2mph 8°C 7°C
18/03/19 22:20 EGTE 182220Z 29006KT 9999 FEW015 BKN038 08/07 Q1025 WNW (290°) 6.9mph 8°C 7°C
18/03/19 21:50 EGTE 182150Z VRB02KT 9999 FEW015 SCT040 08/07 Q1025 N (0°) 2.3mph 8°C 7°C
18/03/19 21:20 EGTE 182120Z VRB03KT 9999 FEW015 SCT040 07/06 Q1025 N (0°) 3.5mph 7°C 6°C
18/03/19 20:50 EGTE 182050Z VRB03KT 9999 SCT012 SCT035 07/06 Q1025 N (0°) 3.5mph 7°C 6°C
18/03/19 20:20 EGTE 182020Z VRB02KT 9999 SCT012 SCT035 07/06 Q1025 N (0°) 2.3mph 7°C 6°C
18/03/19 19:50 EGTE 181950Z 29004KT 9999 VCSH FEW010 SCT015 08/07 Q1024 VCSH WNW (290°) 4.6mph 8°C 7°C
18/03/19 18:50 EGTE 181850Z 30004KT 9999 VCSH FEW010 SCT015 08/06 Q1024 VCSH WNW (300°) 4.6mph 8°C 6°C
18/03/19 18:20 EGTE 181820Z 30008KT 270V330 9999 7000NE VCSH FEW010 BKN015 08/07 Q1024 VCSH WNW (300°) 9.2mph 8°C 7°C
18/03/19 17:20 EGTE 181720Z 30006KT 270V340 9999 VCSH BKN015 09/07 Q1023 VCSH WNW (300°) 6.9mph 9°C 7°C
18/03/19 16:50 EGTE 181650Z 30009KT 280V340 9999 VCSH BKN020 09/06 Q1023 VCSH WNW (300°) 10.4mph 9°C 6°C
18/03/19 16:20 EGTE 181620Z 31010KT 260V340 9999 VCSH BKN020 09/06 Q1023 VCSH NW (310°) 11.5mph 9°C 6°C
18/03/19 15:50 EGTE 181550Z 29009KT 9999 VCSH BKN023 08/06 Q1023 VCSH WNW (290°) 10.4mph 8°C 6°C
18/03/19 15:20 EGTE 181520Z 30007KT 260V330 9999 VCSH BKN023 09/06 Q1022 VCSH WNW (300°) 8.1mph 9°C 6°C
18/03/19 14:50 EGTE 181450Z 29009KT 9999 SCT020 09/06 Q1022 WNW (290°) 10.4mph 9°C 6°C
18/03/19 13:50 EGTE 181350Z 28010KT 9999 SCT020 10/06 Q1022 W (280°) 11.5mph 10°C 6°C
18/03/19 13:20 EGTE 181320Z 27013KT 240V300 9999 VCSH SCT020 09/06 Q1022 VCSH W (270°) 15.0mph 9°C 6°C
18/03/19 12:50 EGTE 181250Z 29012KT 250V320 9999 VCSH SCT018 09/06 Q1023 VCSH WNW (290°) 13.8mph 9°C 6°C
18/03/19 12:20 EGTE 181220Z 27011KT 240V310 9999 FEW015 09/06 Q1023 W (270°) 12.7mph 9°C 6°C
18/03/19 11:50 EGTE 181150Z 29008KT 250V320 9999 FEW015 08/05 Q1023 WNW (290°) 9.2mph 8°C 5°C
18/03/19 11:20 EGTE 181120Z 29008KT 250V320 9999 SCT025 08/05 Q1023 WNW (290°) 9.2mph 8°C 5°C
18/03/19 10:50 EGTE 181050Z 28007KT 240V310 9999 SCT025 08/06 Q1023 W (280°) 8.1mph 8°C 6°C
18/03/19 10:20 EGTE 181020Z 29006KT 250V310 9999 SCT025 07/05 Q1023 WNW (290°) 6.9mph 7°C 5°C
18/03/19 09:50 EGTE 180950Z 26006KT 9999 SCT020 07/05 Q1023 W (260°) 6.9mph 7°C 5°C
18/03/19 09:20 EGTE 180920Z VRB03KT 9999 VCSH SCT020 07/05 Q1023 VCSH N (0°) 3.5mph 7°C 5°C
18/03/19 08:50 EGTE 180850Z 30006KT 9999 FEW025 07/05 Q1022 WNW (300°) 6.9mph 7°C 5°C
18/03/19 08:20 EGTE 180820Z 26004KT 230V290 9999 VCSH FEW035 06/04 Q1022 VCSH W (260°) 4.6mph 6°C 4°C
18/03/19 07:50 EGTE 180750Z 27004KT 230V300 9999 FEW030 06/05 Q1022 W (270°) 4.6mph 6°C 5°C
18/03/19 07:20 EGTE 180720Z 01005KT 300V050 9999 FEW017 06/04 Q1022 N (10°) 5.8mph 6°C 4°C
18/03/19 06:50 EGTE 180650Z VRB03KT 9999 -SHRA FEW017 06/05 Q1022 -SHRA N (0°) 3.5mph 6°C 5°C
18/03/19 06:20 EGTE 180620Z VRB02KT 9999 FEW015 06/05 Q1021 N (0°) 2.3mph 6°C 5°C
17/03/19 23:20 EGTE 172320Z 33004KT 310V010 CAVOK 07/05 Q1018 NNW (330°) 4.6mph 7°C 5°C
17/03/19 22:50 EGTE 172250Z 29006KT 260V320 CAVOK 07/04 Q1018 WNW (290°) 6.9mph 7°C 4°C
17/03/19 21:50 EGTE 172150Z 30010KT 9999 FEW030 07/05 Q1017 WNW (300°) 11.5mph 7°C 5°C
17/03/19 21:20 EGTE 172120Z 30012KT 9999 FEW025 08/05 Q1016 WNW (300°) 13.8mph 8°C 5°C
17/03/19 20:50 EGTE 172050Z 30009KT 9999 FEW025 07/05 Q1016 WNW (300°) 10.4mph 7°C 5°C
17/03/19 20:20 EGTE 172020Z 29008KT 260V320 9999 FEW020 06/04 Q1015 WNW (290°) 9.2mph 6°C 4°C
17/03/19 19:20 EGTE 171920Z 30010KT 9999 VCSH FEW026CB 06/04 Q1014 RESHRA VCSH WNW (300°) 11.5mph 6°C 4°C
17/03/19 18:50 EGTE 171850Z 30014KT 270V330 9999 5000W SHRA SCT028CB 08/05 Q1014 SHRA WNW (300°) 16.1mph 8°C 5°C
17/03/19 18:20 EGTE 171820Z 29016G26KT 9999 SCT028CB 08/04 Q1013 WNW (290°) 18.4mph 29.9mph 8°C 4°C
17/03/19 17:50 EGTE 171750Z 29013KT 9999 SCT026CB 09/04 Q1012 WNW (290°) 15.0mph 9°C 4°C
17/03/19 17:20 EGTE 171720Z 28013KT 9999 VCSH FEW020 SCT028CB 08/04 Q1012 RESHRA VCSH W (280°) 15.0mph 8°C 4°C
17/03/19 16:50 EGTE 171650Z 28015KT 240V310 9999 7000W SHRA FEW020 SCT028CB 08/04 Q1012 SHRA W (280°) 17.3mph 8°C 4°C
17/03/19 16:20 EGTE 171620Z 28012KT 9999 7000E SHRA FEW015 SCT030CB 08/04 Q1011 SHRA W (280°) 13.8mph 8°C 4°C
17/03/19 15:50 EGTE 171550Z 30017KT 9999 7000NW SHRA FEW020 SCT035CB 07/02 Q1011 SHRA WNW (300°) 19.6mph 7°C 2°C
17/03/19 14:50 EGTE 171450Z 29017KT 9999 FEW040 09/01 Q1010 WNW (290°) 19.6mph 9°C 1°C
17/03/19 14:20 EGTE 171420Z 29020G31KT 260V330 9999 FEW040 09/M00 Q1010 WNW (290°) 23.0mph 35.7mph 9°C 0°C
17/03/19 13:50 EGTE 171350Z 29016G26KT 250V320 9999 FEW040 10/00 Q1010 WNW (290°) 18.4mph 29.9mph 10°C 0°C
17/03/19 13:20 EGTE 171320Z 29014G25KT 250V340 9999 FEW030 10/02 Q1010 WNW (290°) 16.1mph 28.8mph 10°C 2°C
17/03/19 12:50 EGTE 171250Z 28014KT 240V310 9999 FEW030CB 10/02 Q1009 W (280°) 16.1mph 10°C 2°C
17/03/19 12:20 EGTE 171220Z 27012KT 240V300 9999 FEW030CB 09/02 Q1009 W (270°) 13.8mph 9°C 2°C
17/03/19 11:50 EGTE 171150Z 30011KT 9999 FEW030CB 09/02 Q1009 WNW (300°) 12.7mph 9°C 2°C
17/03/19 11:20 EGTE 171120Z 25009KT 210V280 9999 FEW030CB 08/03 Q1009 WSW (250°) 10.4mph 8°C 3°C
17/03/19 10:50 EGTE 171050Z 26015KT 9999 VCSH FEW030CB 07/02 Q1008 VCSH W (260°) 17.3mph 7°C 2°C
17/03/19 10:20 EGTE 171020Z 33008KT 300V020 9999 FEW030CB 07/02 Q1008 NNW (330°) 9.2mph 7°C 2°C
17/03/19 09:50 EGTE 170950Z 29014KT 260V320 9999 SCT020CB 08/03 Q1008 WNW (290°) 16.1mph 8°C 3°C
17/03/19 09:20 EGTE 170920Z 30012G22KT 260V330 9999 FEW020CB 06/02 Q1007 WNW (300°) 13.8mph 25.3mph 6°C 2°C
17/03/19 08:50 EGTE 170850Z 29011KT 250V320 9999 FEW030CB 06/02 Q1007 WNW (290°) 12.7mph 6°C 2°C
17/03/19 08:20 EGTE 170820Z 29013KT 260V340 9999 FEW030CB 05/00 Q1006 WNW (290°) 15.0mph 5°C 0°C
17/03/19 07:50 EGTE 170750Z 29010KT 260V320 9999 FEW035CB 05/02 Q1006 WNW (290°) 11.5mph 5°C 2°C
17/03/19 07:20 EGTE 170720Z 28007KT 9999 FEW035CB 04/02 Q1005 W (280°) 8.1mph 4°C 2°C
17/03/19 06:50 EGTE 170650Z 28006KT 250V310 9999 FEW030CB 03/01 Q1005 W (280°) 6.9mph 3°C 1°C
16/03/19 21:50 EGTE 162150Z 27010KT 9999 FEW015 07/05 Q0999 W (270°) 11.5mph 7°C 5°C
16/03/19 21:20 EGTE 162120Z 27008KT 240V300 9999 -RA FEW015 06/04 Q0998 -RA W (270°) 9.2mph 6°C 4°C
16/03/19 20:50 EGTE 162050Z 28013KT 9999 -RA FEW015 SCT030 07/05 Q0998 -RA W (280°) 15.0mph 7°C 5°C
16/03/19 20:20 EGTE 162020Z 26009KT 220V300 9999 -RA SCT020 08/07 Q0997 -RA W (260°) 10.4mph 8°C 7°C
16/03/19 19:50 EGTE 161950Z 26012KT 9999 -RA FEW011 SCT030 08/06 Q0997 -RA W (260°) 13.8mph 8°C 6°C
16/03/19 19:20 EGTE 161920Z 26013G25KT 9000 -RA FEW011 BKN030 08/06 Q0997 -RA W (260°) 15.0mph 28.8mph 8°C 6°C
16/03/19 18:50 EGTE 161850Z 29020KT 7000 -RA BKN011 10/09 Q0997 -RA WNW (290°) 23.0mph 10°C 9°C
16/03/19 18:20 EGTE 161820Z 22016KT 9000 -RA FEW010 BKN018 10/09 Q0996 -RA SW (220°) 18.4mph 10°C 9°C
16/03/19 17:50 EGTE 161750Z 21015KT 8000 -RA FEW010 BKN017 10/09 Q0997 -RA SSW (210°) 17.3mph 10°C 9°C
16/03/19 17:20 EGTE 161720Z 21018G31KT 7000 -DZ FEW010 BKN013 10/08 Q0998 -DZ SSW (210°) 20.7mph 35.7mph 10°C 8°C
16/03/19 16:20 EGTE 161620Z 22022G32KT 7000 -RADZ FEW012 BKN015 09/08 Q0999 -RA -DZ SW (220°) 25.3mph 36.8mph 9°C 8°C
16/03/19 15:50 EGTE 161550Z 21025G37KT 7000 -RADZ FEW012 BKN016 09/08 Q0999 -RA -DZ SSW (210°) 28.8mph 42.6mph 9°C 8°C
16/03/19 15:20 EGTE 161520Z 22026G40KT 9000 -DZ FEW012 BKN017 11/08 Q0999 -DZ SW (220°) 29.9mph 46.0mph 11°C 8°C
16/03/19 14:50 EGTE 161450Z 22030G43KT 9999 VCSH FEW013 BKN021 11/08 Q1000 VCSH SW (220°) 34.5mph 49.5mph 11°C 8°C
16/03/19 14:20 EGTE 161420Z 22028G41KT 9999 VCSH BKN023 12/08 Q1000 VCSH SW (220°) 32.2mph 47.2mph 12°C 8°C
16/03/19 13:50 EGTE 161350Z 22028G41KT 9999 VCSH FEW023 BKN025 12/08 Q1001 VCSH SW (220°) 32.2mph 47.2mph 12°C 8°C
16/03/19 13:20 EGTE 161320Z 22025G41KT 9999 BKN028 12/07 Q1002 SW (220°) 28.8mph 47.2mph 12°C 7°C
16/03/19 12:50 EGTE 161250Z 22023KT 9999 FEW020 BKN024 12/08 Q1003 SW (220°) 26.5mph 12°C 8°C
16/03/19 12:20 EGTE 161220Z 23020G32KT 9999 FEW020 BKN024 11/06 Q1003 SW (230°) 23.0mph 36.8mph 11°C 6°C
16/03/19 11:50 EGTE 161150Z 21017G28KT 9999 FEW024 BKN028 11/08 Q1004 SSW (210°) 19.6mph 32.2mph 11°C 8°C
16/03/19 11:20 EGTE 161120Z 23016G28KT 180V260 9999 FEW020 BKN024 10/06 Q1005 SW (230°) 18.4mph 32.2mph 10°C 6°C
16/03/19 10:50 EGTE 161050Z 23016G31KT 9999 FEW020 BKN025 11/07 Q1005 SW (230°) 18.4mph 35.7mph 11°C 7°C
16/03/19 10:20 EGTE 161020Z 23017KT 9999 FEW020 BKN025 11/07 Q1006 SW (230°) 19.6mph 11°C 7°C
16/03/19 09:50 EGTE 160950Z 22018KT 9999 FEW020 BKN025 11/08 Q1006 SW (220°) 20.7mph 11°C 8°C
16/03/19 09:20 EGTE 160920Z 23015G25KT 200V270 9999 FEW020 BKN025 11/07 Q1006 SW (230°) 17.3mph 28.8mph 11°C 7°C
16/03/19 08:50 EGTE 160850Z 23014KT 9999 FEW020 BKN030 10/06 Q1006 SW (230°) 16.1mph 10°C 6°C
16/03/19 07:50 EGTE 160750Z 22016KT 9999 FEW015 BKN020 10/07 Q1007 SW (220°) 18.4mph 10°C 7°C
16/03/19 07:20 EGTE 160720Z 23020G31KT 9999 FEW020 BKN030 10/07 Q1007 SW (230°) 23.0mph 35.7mph 10°C 7°C
16/03/19 06:20 EGTE 160620Z 24018KT 9999 FEW018 BKN025 10/07 Q1007 WSW (240°) 20.7mph 10°C 7°C
16/03/19 05:50 EGTE 160550Z 23018KT 9999 FEW018 BKN025 11/07 Q1008 SW (230°) 20.7mph 11°C 7°C
16/03/19 02:20 EGTE 160220Z 24014KT 9999 BKN018 10/08 Q1010 WSW (240°) 16.1mph 10°C 8°C
16/03/19 01:50 EGTE 160150Z 23016KT 9999 FEW022 11/08 Q1010 SW (230°) 18.4mph 11°C 8°C
16/03/19 01:20 EGTE 160120Z 23016KT CAVOK 11/09 Q1011 SW (230°) 18.4mph 11°C 9°C
16/03/19 00:50 EGTE 160050Z 24015KT CAVOK 12/09 Q1011 WSW (240°) 17.3mph 12°C 9°C
16/03/19 00:20 EGTE 160020Z 23013KT 9999 FEW020 11/08 Q1011 SW (230°) 15.0mph 11°C 8°C
15/03/19 23:20 EGTE 152320Z 24012KT 9999 FEW020 10/07 Q1012 WSW (240°) 13.8mph 10°C 7°C
15/03/19 22:50 EGTE 152250Z 24013KT 9999 SCT020 12/09 Q1012 WSW (240°) 15.0mph 12°C 9°C
15/03/19 22:20 EGTE 152220Z 25016KT 9999 BKN017 12/09 Q1012 WSW (250°) 18.4mph 12°C 9°C
15/03/19 21:20 EGTE 152120Z 25011KT 220V290 9999 BKN016 11/09 Q1013 WSW (250°) 12.7mph 11°C 9°C
15/03/19 20:50 EGTE 152050Z 25013KT 220V280 9999 BKN016 12/10 Q1013 WSW (250°) 15.0mph 12°C 10°C
15/03/19 20:20 EGTE 152020Z 25012KT 9999 BKN016 12/10 Q1013 WSW (250°) 13.8mph 12°C 10°C
15/03/19 19:50 EGTE 151950Z 26013KT 9999 BKN016 12/10 Q1013 W (260°) 15.0mph 12°C 10°C
15/03/19 19:20 EGTE 151920Z 26011KT 210V310 9999 BKN016 12/09 Q1013 W (260°) 12.7mph 12°C 9°C
15/03/19 18:50 EGTE 151850Z 26014KT 9999 BKN017 12/09 Q1013 W (260°) 16.1mph 12°C 9°C
15/03/19 18:20 EGTE 151820Z 26014KT 230V290 9999 BKN016 12/09 Q1012 W (260°) 16.1mph 12°C 9°C
15/03/19 17:50 EGTE 151750Z 26015G26KT 230V290 9999 BKN022 12/10 Q1012 W (260°) 17.3mph 29.9mph 12°C 10°C
15/03/19 17:20 EGTE 151720Z 26018G29KT 230V290 9999 BKN017 12/10 Q1012 W (260°) 20.7mph 33.4mph 12°C 10°C
15/03/19 16:20 EGTE 151620Z 26018G31KT 230V290 9999 BKN017 13/10 Q1012 W (260°) 20.7mph 35.7mph 13°C 10°C
15/03/19 15:50 EGTE 151550Z 27022G34KT 9999 VCSH BKN018 12/09 Q1012 VCSH W (270°) 25.3mph 39.1mph 12°C 9°C
15/03/19 15:20 EGTE 151520Z 26020G32KT 9999 VCSH BKN015 13/10 Q1012 VCSH W (260°) 23.0mph 36.8mph 13°C 10°C